Time;durP1;ratioP1;P1;durP2;ratioP2;P2;SDS_P1;SDS_P2;PMS_P1;PMS_P2;Temp;Humidity;BMP_temperature;BMP_pressure;BME280_temperature;BME280_humidity;BME280_pressure;Samples;Min_cycle;Max_cycle;Signal;HPM_P1;HPM_P2
2022/07/31 00:02:19;;;;;;;1999.90;999.90;;;;;;;19.41;79.92;95687.44;4992820;28;20030;-67
2022/07/31 00:04:44;;;;;;;1999.90;999.90;;;;;;;19.31;79.93;95674.44;4992088;28;20036;-66
2022/07/31 00:07:10;;;;;;;1999.90;999.90;;;;;;;19.26;79.99;95669.31;4992621;28;20037;-66
2022/07/31 00:09:35;;;;;;;1999.90;999.90;;;;;;;19.21;79.74;95663.03;4991709;28;20026;-67
2022/07/31 00:12:01;;;;;;;1999.90;999.90;;;;;;;19.25;79.78;95668.53;5010234;28;20056;-67
2022/07/31 00:14:26;;;;;;;1999.90;999.90;;;;;;;19.06;80.10;95654.91;5008866;28;20025;-66
2022/07/31 00:16:51;;;;;;;1999.90;999.90;;;;;;;18.92;80.37;95621.06;4991229;28;20036;-66
2022/07/31 00:19:17;;;;;;;1999.90;999.90;;;;;;;18.93;80.52;95621.84;5008715;28;20101;-66
2022/07/31 00:21:42;;;;;;;1999.90;999.90;;;;;;;18.93;80.00;95622.63;5010240;28;20473;-67
2022/07/31 00:24:08;;;;;;;1999.90;999.90;;;;;;;19.00;79.89;95640.91;4991719;28;20022;-67
2022/07/31 00:26:33;;;;;;;1999.90;999.90;;;;;;;19.23;80.39;95676.94;5009558;28;20026;-69
2022/07/31 00:28:58;;;;;;;1999.90;999.90;;;;;;;18.72;79.85;95595.09;5010264;28;20084;-68
2022/07/31 00:31:23;;;;;;;1999.90;999.90;;;;;;;19.09;80.35;95663.13;4990269;28;20034;-69
2022/07/31 00:33:49;;;;;;;1999.90;999.90;;;;;;;18.63;79.75;95592.56;5009725;28;20025;-66
2022/07/31 00:36:14;;;;;;;1999.90;999.90;;;;;;;18.92;80.78;95641.84;5008971;28;20124;-66
2022/07/31 00:38:39;;;;;;;1999.90;999.90;;;;;;;18.65;80.33;95608.38;5010072;28;20466;-67
2022/07/31 00:41:05;;;;;;;1999.90;999.90;;;;;;;19.04;80.66;95668.75;4991553;28;20057;-67
2022/07/31 00:43:30;;;;;;;1999.90;999.90;;;;;;;18.82;80.45;95636.94;4991722;28;20569;-67
2022/07/31 00:45:56;;;;;;;1999.90;999.90;;;;;;;18.77;80.31;95632.59;4990658;28;20075;-69
2022/07/31 00:48:22;;;;;;;1999.90;999.90;;;;;;;18.27;80.20;95558.47;5009794;28;20026;-66
2022/07/31 00:50:47;;;;;;;1999.90;999.90;;;;;;;18.23;79.99;95549.50;5008794;28;20033;-66
2022/07/31 00:53:13;;;;;;;1999.90;999.90;;;;;;;18.94;80.54;95669.25;4991726;28;20507;-68
2022/07/31 00:55:38;;;;;;;1999.90;999.90;;;;;;;18.45;80.53;95592.06;5008418;28;20423;-66
2022/07/31 00:58:03;;;;;;;1999.90;999.90;;;;;;;18.67;80.33;95633.06;5009705;28;20022;-66
2022/07/31 01:00:29;;;;;;;1999.90;999.90;;;;;;;18.60;79.93;95639.03;5007905;28;20022;-67
2022/07/31 01:02:54;;;;;;;1999.90;999.90;;;;;;;18.87;80.02;95682.53;5009141;28;20042;-66
2022/07/31 01:05:19;;;;;;;1999.90;999.90;;;;;;;18.33;80.11;95599.41;5008455;28;20118;-66
2022/07/31 01:07:46;;;;;;;1999.90;999.90;;;;;;;18.59;80.02;95636.69;5009505;28;20463;-67
2022/07/31 01:10:15;;;;;;;1999.90;999.90;;;;;;;18.81;80.68;95656.94;4990945;28;20209;-66
2022/07/31 01:12:50;;;;;;;1999.90;999.90;;;;;;;18.85;80.18;95657.84;4991431;28;20493;-67
2022/07/31 01:15:17;;;;;;;1999.90;999.90;;;;;;;18.90;80.69;95652.19;5007367;28;20042;-67
2022/07/31 01:17:44;;;;;;;1999.90;999.90;;;;;;;18.90;80.50;95634.09;5008553;28;20022;-67
2022/07/31 01:20:10;;;;;;;1999.90;999.90;;;;;;;19.07;81.15;95661.88;4991341;28;20026;-67
2022/07/31 01:22:44;;;;;;;1999.90;999.90;;;;;;;19.23;80.69;95676.16;5008027;28;20029;-67
2022/07/31 01:25:38;;;;;;;1999.90;999.90;;;;;;;19.31;80.82;95666.34;4991027;28;20068;-67
2022/07/31 01:28:09;;;;;;;1999.90;999.90;;;;;;;19.40;80.93;95670.47;5009335;28;20423;-67
2022/07/31 01:31:05;;;;;;;1999.90;999.90;;;;;;;19.26;80.70;95631.56;4990759;28;20038;-69
2022/07/31 01:33:37;;;;;;;1999.90;999.90;;;;;;;19.48;80.65;95655.22;5008981;28;20037;-66
2022/07/31 01:36:10;;;;;;;1999.90;999.90;;;;;;;19.60;80.82;95671.34;5008571;28;20045;-66
2022/07/31 01:38:41;;;;;;;1999.90;999.90;;;;;;;19.64;80.59;95671.44;5009589;28;20029;-68
2022/07/31 01:41:11;;;;;;;1999.90;999.90;;;;;;;19.69;80.35;95669.25;5008414;28;20026;-69
2022/07/31 01:43:41;;;;;;;1999.90;999.90;;;;;;;19.72;80.33;95670.47;5008880;28;20104;-70
2022/07/31 01:46:11;;;;;;;1999.90;999.90;;;;;;;19.76;80.15;95663.25;5007527;28;20180;-67
2022/07/31 01:48:38;;;;;;;1999.90;999.90;;;;;;;19.65;80.25;95649.47;5009511;28;20441;-67
2022/07/31 01:51:07;;;;;;;1999.90;999.90;;;;;;;19.11;79.93;95561.06;5008430;28;20036;-67
2022/07/31 01:53:35;;;;;;;1999.90;999.90;;;;;;;19.63;80.06;95638.28;5008768;28;20022;-67
2022/07/31 01:56:01;;;;;;;1999.90;999.90;;;;;;;19.74;79.96;95657.41;5008930;28;20034;-67
2022/07/31 01:58:31;;;;;;;1999.90;999.90;;;;;;;19.76;80.17;95662.44;4991758;28;20053;-68
2022/07/31 02:00:58;;;;;;;1999.90;999.90;;;;;;;19.78;80.29;95660.19;4989483;28;20025;-66
2022/07/31 02:03:25;;;;;;;1999.90;999.90;;;;;;;19.74;80.29;95660.88;4990690;28;20387;-66
2022/07/31 02:05:52;;;;;;;1999.90;999.90;;;;;;;19.77;80.16;95667.53;5008423;28;20471;-67
2022/07/31 02:08:19;;;;;;;1999.90;999.90;;;;;;;19.78;79.85;95660.97;5010846;28;20214;-67
2022/07/31 02:10:45;;;;;;;1999.90;999.90;;;;;;;19.78;80.28;95657.50;5011656;28;20025;-66
2022/07/31 02:13:18;;;;;;;1999.90;999.90;;;;;;;19.81;80.21;95662.19;5011231;28;20044;-67
2022/07/31 02:15:45;;;;;;;1999.90;999.90;;;;;;;19.67;80.02;95643.75;5011239;28;20512;-67
2022/07/31 02:18:11;;;;;;;1999.90;999.90;;;;;;;19.69;79.81;95650.34;5011641;28;20022;-67
2022/07/31 02:20:41;;;;;;;1999.90;999.90;;;;;;;19.54;80.18;95626.84;5012551;28;20045;-67
2022/07/31 02:23:07;;;;;;;1999.90;999.90;;;;;;;19.34;80.05;95598.22;5010966;28;20117;-66
2022/07/31 02:25:35;;;;;;;1999.90;999.90;;;;;;;19.77;80.27;95656.72;5010977;28;20100;-66
2022/07/31 02:28:06;;;;;;;1999.90;999.90;;;;;;;19.76;80.49;95663.25;5012479;28;20026;-66
2022/07/31 02:30:34;;;;;;;1999.90;999.90;;;;;;;19.86;80.56;95661.91;5011280;28;20084;-67
2022/07/31 02:33:00;;;;;;;1999.90;999.90;;;;;;;19.79;80.24;95643.66;5011454;28;20061;-66
2022/07/31 02:35:26;;;;;;;1999.90;999.90;;;;;;;19.81;80.21;95636.00;4992124;28;20037;-66
2022/07/31 02:37:53;;;;;;;1999.90;999.90;;;;;;;20.00;80.05;95654.16;5010810;28;20040;-67
2022/07/31 02:40:21;;;;;;;1999.90;999.90;;;;;;;19.90;79.98;95635.78;5011401;28;20034;-66
2022/07/31 02:42:47;;;;;;;1999.90;999.90;;;;;;;19.95;80.17;95644.41;4993913;28;20026;-66
2022/07/31 02:45:14;;;;;;;1999.90;999.90;;;;;;;20.02;79.94;95651.13;5010994;28;20032;-67
2022/07/31 02:47:39;;;;;;;1999.90;999.90;;;;;;;19.91;79.98;95637.34;5012048;28;20018;-66
2022/07/31 02:50:06;;;;;;;1999.90;999.90;;;;;;;20.03;79.80;95656.16;5011858;28;20029;-69
2022/07/31 02:52:32;;;;;;;1999.90;999.90;;;;;;;19.85;79.93;95625.25;5010661;28;20036;-67
2022/07/31 02:54:58;;;;;;;1999.90;999.90;;;;;;;20.02;80.05;95646.50;5010871;28;20026;-67
2022/07/31 02:57:24;;;;;;;1999.90;999.90;;;;;;;20.10;79.63;95648.22;5011660;28;20443;-67
2022/07/31 02:59:49;;;;;;;1999.90;999.90;;;;;;;20.12;79.92;95647.88;5010806;28;20021;-67
2022/07/31 03:02:15;;;;;;;1999.90;999.90;;;;;;;19.83;79.49;95604.03;4992149;28;20030;-67
2022/07/31 03:04:40;;;;;;;1999.90;999.90;;;;;;;20.18;79.84;95646.47;4993295;28;20383;-68
2022/07/31 03:07:05;;;;;;;1999.90;999.90;;;;;;;19.90;79.95;95606.09;5011519;28;20057;-67
2022/07/31 03:09:31;;;;;;;1999.90;999.90;;;;;;;20.21;79.93;95645.72;5028962;22;20046;-72
2022/07/31 03:11:57;;;;;;;1999.90;999.90;;;;;;;20.10;80.15;95620.41;5031363;28;20044;-74
2022/07/31 03:14:24;;;;;;;1999.90;999.90;;;;;;;20.26;80.02;95650.88;5025778;28;20029;-73
2022/07/31 03:16:52;;;;;;;1999.90;999.90;;;;;;;20.12;80.14;95621.66;5010227;28;20026;-73
2022/07/31 03:19:21;;;;;;;1999.90;999.90;;;;;;;20.16;80.19;95625.19;4996913;28;20033;-73
2022/07/31 03:21:47;;;;;;;1999.90;999.90;;;;;;;20.21;80.29;95637.63;5031236;28;20081;-74
2022/07/31 03:24:13;;;;;;;1999.90;999.90;;;;;;;20.18;80.08;95630.25;5011349;28;20036;-73
2022/07/31 03:26:38;;;;;;;1999.90;999.90;;;;;;;20.28;80.00;95647.81;5031260;28;20022;-74
2022/07/31 03:29:04;;;;;;;1999.90;999.90;;;;;;;20.30;79.68;95661.75;5029034;28;20029;-74
2022/07/31 03:31:30;;;;;;;1999.90;999.90;;;;;;;20.21;79.88;95643.81;5004757;28;20041;-72
2022/07/31 03:33:56;;;;;;;1999.90;999.90;;;;;;;20.19;79.83;95645.31;5010135;28;20036;-72
2022/07/31 03:36:23;;;;;;;1999.90;999.90;;;;;;;20.18;79.73;95639.13;5010453;28;20037;-72
2022/07/31 03:38:48;;;;;;;1999.90;999.90;;;;;;;20.20;80.08;95644.97;4993099;28;20470;-74
2022/07/31 03:41:14;;;;;;;1999.90;999.90;;;;;;;20.24;80.17;95648.53;5011004;28;20112;-72
2022/07/31 03:43:41;;;;;;;1999.90;999.90;;;;;;;20.29;79.99;95658.28;5017027;28;20036;-73
2022/07/31 03:46:07;;;;;;;1999.90;999.90;;;;;;;20.21;80.07;95646.50;5015059;28;20121;-72
2022/07/31 03:48:33;;;;;;;1999.90;999.90;;;;;;;20.19;80.04;95642.63;4993691;28;20054;-72
2022/07/31 03:50:58;;;;;;;1999.90;999.90;;;;;;;20.18;80.11;95649.16;5014341;28;20542;-73
2022/07/31 03:53:25;;;;;;;1999.90;999.90;;;;;;;20.15;79.87;95634.44;5029977;28;20037;-72
2022/07/31 03:55:51;;;;;;;1999.90;999.90;;;;;;;20.10;79.57;95634.69;4995707;28;20038;-73
2022/07/31 03:58:17;;;;;;;1999.90;999.90;;;;;;;20.10;79.91;95640.09;4973779;28;20027;-73
2022/07/31 04:00:44;;;;;;;1999.90;999.90;;;;;;;20.10;80.04;95648.22;5010897;28;20031;-73
2022/07/31 04:03:11;;;;;;;1999.90;999.90;;;;;;;20.28;79.07;95645.13;5029158;28;20045;-73
2022/07/31 04:05:40;;;;;;;1999.90;999.90;;;;;;;20.33;79.07;95647.56;5001438;28;20033;-72
2022/07/31 04:08:07;;;;;;;1999.90;999.90;;;;;;;20.31;79.30;95647.09;5009440;28;20050;-72
2022/07/31 04:10:34;;;;;;;1999.90;999.90;;;;;;;20.26;79.79;95640.84;5011830;28;20036;-72
2022/07/31 04:13:00;;;;;;;1999.90;999.90;;;;;;;20.28;79.86;95647.81;5010586;28;20022;-72
2022/07/31 04:15:26;;;;;;;1999.90;999.90;;;;;;;20.36;79.82;95650.31;5026042;28;20029;-72
2022/07/31 04:17:51;;;;;;;1999.90;999.90;;;;;;;20.40;79.72;95645.00;5011336;28;20113;-72
2022/07/31 04:20:17;;;;;;;1999.90;999.90;;;;;;;20.45;79.83;95656.28;5028668;28;20017;-73
2022/07/31 04:22:42;;;;;;;1999.90;999.90;;;;;;;20.48;79.96;95657.56;5013974;28;20096;-72
2022/07/31 04:25:08;;;;;;;1999.90;999.90;;;;;;;20.49;80.00;95648.31;5030355;28;20064;-70
2022/07/31 04:27:34;;;;;;;1999.90;999.90;;;;;;;20.64;79.45;95652.84;5025623;28;20841;-72
2022/07/31 04:29:59;;;;;;;1999.90;999.90;;;;;;;20.56;79.21;95656.53;5010617;28;20528;-71
2022/07/31 04:32:25;;;;;;;1999.90;999.90;;;;;;;20.62;79.32;95657.81;5007116;28;20034;-70
2022/07/31 04:34:50;;;;;;;1999.90;999.90;;;;;;;20.70;79.18;95664.94;5010384;28;20489;-71
2022/07/31 04:37:16;;;;;;;1999.90;999.90;;;;;;;20.72;79.12;95662.66;5009230;28;20041;-71
2022/07/31 04:39:42;;;;;;;1999.90;999.90;;;;;;;20.84;79.23;95661.75;5028318;28;20242;-71
2022/07/31 04:42:08;;;;;;;1999.90;999.90;;;;;;;21.00;79.10;95669.78;4995299;28;20113;-72
2022/07/31 04:44:34;;;;;;;1999.90;999.90;;;;;;;21.10;78.70;95666.50;5010046;28;20030;-71
2022/07/31 04:47:01;;;;;;;1999.90;999.90;;;;;;;21.17;78.53;95655.00;5022102;28;20037;-71
2022/07/31 04:49:26;;;;;;;1999.90;999.90;;;;;;;21.24;78.42;95661.34;5029665;28;20056;-70
2022/07/31 04:51:51;;;;;;;1999.90;999.90;;;;;;;21.39;78.47;95659.66;5014451;28;20030;-71
2022/07/31 04:54:17;;;;;;;1999.90;999.90;;;;;;;21.48;78.61;95654.03;5008684;28;20025;-71
2022/07/31 04:56:42;;;;;;;1999.90;999.90;;;;;;;21.60;78.66;95663.88;5025819;28;20397;-71
2022/07/31 04:59:11;;;;;;;1999.90;999.90;;;;;;;21.75;78.07;95665.69;5028361;28;20036;-71
2022/07/31 05:01:36;;;;;;;1999.90;999.90;;;;;;;21.83;77.84;95658.47;4997990;28;20113;-71
2022/07/31 05:04:03;;;;;;;1999.90;999.90;;;;;;;22.08;77.50;95662.31;5024156;28;20100;-71
2022/07/31 05:06:34;;;;;;;1999.90;999.90;;;;;;;22.18;77.35;95664.44;5011607;28;20025;-70
2022/07/31 05:08:59;;;;;;;1999.90;999.90;;;;;;;22.26;77.17;95662.59;5027680;28;20040;-71
2022/07/31 05:11:25;;;;;;;1999.90;999.90;;;;;;;22.33;76.82;95661.94;5011507;28;20033;-71
2022/07/31 05:13:52;;;;;;;1999.90;999.90;;;;;;;22.25;76.79;95661.81;5013286;28;20463;-72
2022/07/31 05:16:19;;;;;;;1999.90;999.90;;;;;;;22.21;76.57;95652.06;4999958;28;20040;-71
2022/07/31 05:18:44;;;;;;;1999.90;999.90;;;;;;;22.07;76.61;95655.34;5029236;28;20127;-71
2022/07/31 05:21:11;;;;;;;1999.90;999.90;;;;;;;21.91;76.47;95654.72;5027631;28;20470;-71
2022/07/31 05:23:37;;;;;;;1999.90;999.90;;;;;;;21.79;76.79;95642.16;5027713;28;20521;-71
2022/07/31 05:26:04;;;;;;;1999.90;999.90;;;;;;;21.76;76.95;95643.69;5003947;28;20037;-71
2022/07/31 05:28:29;;;;;;;1999.90;999.90;;;;;;;21.89;77.07;95646.16;5009660;28;20064;-71
2022/07/31 05:30:54;;;;;;;1999.90;999.90;;;;;;;21.98;76.95;95650.19;4992876;28;20447;-74
2022/07/31 05:33:19;;;;;;;1999.90;999.90;;;;;;;21.98;76.90;95635.88;4991669;28;20038;-71
2022/07/31 05:35:45;;;;;;;1999.90;999.90;;;;;;;22.17;76.72;95662.88;5015750;28;20393;-71
2022/07/31 05:38:10;;;;;;;1999.90;999.90;;;;;;;22.27;76.79;95645.22;5027246;28;20032;-72
2022/07/31 05:40:35;;;;;;;1999.90;999.90;;;;;;;22.43;76.53;95661.28;5011336;28;20057;-71
2022/07/31 05:43:01;;;;;;;1999.90;999.90;;;;;;;22.63;76.83;95653.81;5011184;28;20425;-72
2022/07/31 05:45:26;;;;;;;1999.90;999.90;;;;;;;22.80;75.50;95667.56;5028278;28;20057;-72
2022/07/31 05:47:52;;;;;;;1999.90;999.90;;;;;;;22.42;72.48;95663.22;5013374;28;20026;-72
2022/07/31 05:50:17;;;;;;;1999.90;999.90;;;;;;;21.39;70.95;95685.94;4994729;28;20021;-72
2022/07/31 05:52:42;;;;;;;1999.90;999.90;;;;;;;21.82;73.71;95673.16;4994310;28;20462;-72
2022/07/31 05:55:08;;;;;;;1999.90;999.90;;;;;;;22.10;74.55;95672.78;4994826;28;20026;-72
2022/07/31 05:57:33;;;;;;;1999.90;999.90;;;;;;;22.63;75.58;95670.84;4994431;28;20018;-72
2022/07/31 05:59:58;;;;;;;1999.90;999.90;;;;;;;22.71;73.69;95679.84;5012273;28;20029;-73
2022/07/31 06:02:24;;;;;;;1999.90;999.90;;;;;;;22.62;73.25;95679.34;5030081;28;20025;-70
2022/07/31 06:04:49;;;;;;;1999.90;999.90;;;;;;;22.86;71.99;95680.81;5032633;28;20466;-70
2022/07/31 06:07:14;;;;;;;1999.90;999.90;;;;;;;22.74;72.20;95682.59;5000556;28;20053;-69
2022/07/31 06:09:39;;;;;;;1999.90;999.90;;;;;;;21.88;71.36;95683.31;5024763;28;20596;-70
2022/07/31 06:12:06;;;;;;;1999.90;999.90;;;;;;;21.27;73.03;95676.84;5032136;28;20076;-69
2022/07/31 06:14:31;;;;;;;1999.90;999.90;;;;;;;21.12;73.88;95685.84;5030671;28;20060;-70
2022/07/31 06:16:57;;;;;;;1999.90;999.90;;;;;;;21.20;74.07;95687.53;5012230;28;20514;-71
2022/07/31 06:19:22;;;;;;;1999.90;999.90;;;;;;;21.69;75.31;95686.88;5012455;28;20030;-70
2022/07/31 06:21:47;;;;;;;1999.90;999.90;;;;;;;21.95;74.98;95680.69;5014577;28;20025;-71
2022/07/31 06:24:13;;;;;;;1999.90;999.90;;;;;;;22.12;74.12;95686.81;5029913;28;20489;-70
2022/07/31 06:26:38;;;;;;;1999.90;999.90;;;;;;;21.77;72.67;95688.56;5032022;28;20025;-68
2022/07/31 06:29:04;;;;;;;1999.90;999.90;;;;;;;21.94;72.65;95686.50;5024613;28;20478;-69
2022/07/31 06:31:29;;;;;;;1999.90;999.90;;;;;;;22.46;74.90;95685.72;5019615;28;20048;-69
2022/07/31 06:33:54;;;;;;;1999.90;999.90;;;;;;;22.66;71.33;95678.22;5022242;28;20056;-69
2022/07/31 06:36:19;;;;;;;1999.90;999.90;;;;;;;23.15;74.54;95679.22;5012296;28;20394;-69
2022/07/31 06:38:45;;;;;;;1999.90;999.90;;;;;;;22.77;69.23;95684.56;4995809;28;20017;-70
2022/07/31 06:41:43;;;;;;;1999.90;999.90;;;;;;;23.08;73.79;95682.63;5014231;28;20022;-69
2022/07/31 06:43:56;;;;;;;1999.90;999.90;;;;;;;23.29;73.42;95673.97;5029134;28;20029;-70
2022/07/31 06:46:21;;;;;;;1999.90;999.90;;;;;;;23.72;74.72;95682.50;5020055;28;20041;-70
2022/07/31 06:48:46;;;;;;;1999.90;999.90;;;;;;;23.44;71.90;95675.66;4996514;28;20028;-69
2022/07/31 06:51:11;;;;;;;1999.90;999.90;;;;;;;23.21;65.61;95678.50;5027709;28;21260;-69
2022/07/31 06:53:37;;;;;;;1999.90;999.90;;;;;;;23.12;71.12;95680.75;5020538;28;20025;-69
2022/07/31 06:56:02;;;;;;;1999.90;999.90;;;;;;;22.60;69.84;95682.41;5011867;28;20071;-69
2022/07/31 06:58:27;;;;;;;1999.90;999.90;;;;;;;22.40;71.72;95697.25;5031178;28;20469;-69
2022/07/31 07:00:53;;;;;;;1999.90;999.90;;;;;;;22.01;70.68;95692.81;5029220;28;20470;-69
2022/07/31 07:03:18;;;;;;;1999.90;999.90;;;;;;;22.17;70.84;95689.19;5024090;28;20160;-69
2022/07/31 07:05:43;;;;;;;1999.90;999.90;;;;;;;22.69;72.36;95698.44;5031954;28;20445;-72
2022/07/31 07:08:08;;;;;;;1999.90;999.90;;;;;;;21.77;66.94;95690.47;5022464;28;20026;-70
2022/07/31 07:10:34;;;;;;;1999.90;999.90;;;;;;;22.01;70.43;95694.75;4993032;28;20029;-70
2022/07/31 07:12:59;;;;;;;1999.90;999.90;;;;;;;21.89;63.16;95700.34;5013361;28;20477;-70
2022/07/31 07:15:25;;;;;;;1999.90;999.90;;;;;;;21.89;61.04;95697.63;5026800;28;20153;-70
2022/07/31 07:17:50;;;;;;;1999.90;999.90;;;;;;;22.24;70.67;95697.41;4993024;28;20109;-70
2022/07/31 07:20:15;;;;;;;1999.90;999.90;;;;;;;22.20;66.71;95697.34;5010637;28;20106;-70
2022/07/31 07:22:41;;;;;;;1999.90;999.90;;;;;;;22.68;70.80;95703.06;5012001;28;20029;-71
2022/07/31 07:25:07;;;;;;;1999.90;999.90;;;;;;;22.43;64.99;95701.97;5031392;28;20025;-69
2022/07/31 07:27:33;;;;;;;1999.90;999.90;;;;;;;22.11;59.40;95696.84;4995325;28;20136;-69
2022/07/31 07:29:59;;;;;;;1999.90;999.90;;;;;;;22.22;59.04;95691.59;5006806;28;20063;-71
2022/07/31 07:32:24;;;;;;;1999.90;999.90;;;;;;;22.56;63.36;95703.28;5022735;28;20124;-68
2022/07/31 07:34:49;;;;;;;1999.90;999.90;;;;;;;22.50;58.45;95691.97;5011348;28;20091;-69
2022/07/31 07:37:15;;;;;;;1999.90;999.90;;;;;;;22.83;59.04;95693.19;5014672;28;20459;-70
2022/07/31 07:39:40;;;;;;;1999.90;999.90;;;;;;;22.81;55.35;95692.75;5013669;28;20033;-72
2022/07/31 07:42:05;;;;;;;1999.90;999.90;;;;;;;23.21;52.90;95686.66;5015300;28;20099;-72
2022/07/31 07:44:31;;;;;;;1999.90;999.90;;;;;;;22.58;56.44;95685.50;4995684;28;20486;-72
2022/07/31 07:46:56;;;;;;;1999.90;999.90;;;;;;;23.01;56.27;95680.63;5010787;28;20038;-72
2022/07/31 07:49:21;;;;;;;1999.90;999.90;;;;;;;23.36;61.46;95679.44;5011484;28;20029;-73
2022/07/31 07:51:46;;;;;;;1999.90;999.90;;;;;;;23.97;61.47;95683.50;4989553;28;20096;-72
2022/07/31 07:54:14;;;;;;;1999.90;999.90;;;;;;;24.56;58.77;95678.84;5005137;28;20036;-72
2022/07/31 07:56:39;;;;;;;1999.90;999.90;;;;;;;23.91;56.54;95673.38;5002501;28;20114;-72
2022/07/31 07:59:04;;;;;;;1999.90;999.90;;;;;;;23.98;50.58;95673.41;5000187;28;20438;-74
2022/07/31 08:01:29;;;;;;;1999.90;999.90;;;;;;;23.84;49.94;95672.13;5028135;28;20530;-73
2022/07/31 08:03:55;;;;;;;1999.90;999.90;;;;;;;23.96;49.06;95673.78;5028126;28;20021;-72
2022/07/31 08:06:22;;;;;;;1999.90;999.90;;;;;;;23.69;50.46;95670.44;5009361;28;20040;-73
2022/07/31 08:08:47;;;;;;;1999.90;999.90;;;;;;;24.83;53.15;95671.19;4994622;28;20025;-73
2022/07/31 08:11:14;;;;;;;1999.90;999.90;;;;;;;24.80;49.85;95677.41;5030220;28;20036;-72
2022/07/31 08:13:39;;;;;;;1999.90;999.90;;;;;;;24.82;50.09;95680.50;5027859;28;20025;-72
2022/07/31 08:16:04;;;;;;;1999.90;999.90;;;;;;;24.86;47.73;95683.25;5028050;28;20099;-71
2022/07/31 08:18:30;;;;;;;1999.90;999.90;;;;;;;23.64;49.15;95675.44;5029956;28;20072;-72
2022/07/31 08:20:56;;;;;;;1999.90;999.90;;;;;;;23.57;49.50;95670.72;5024602;28;20056;-71
2022/07/31 08:23:21;;;;;;;1999.90;999.90;;;;;;;23.73;54.35;95673.97;5011884;28;20021;-72
2022/07/31 08:25:46;;;;;;;1999.90;999.90;;;;;;;23.82;48.91;95677.16;5027689;28;20038;-71
2022/07/31 08:28:11;;;;;;;1999.90;999.90;;;;;;;23.31;48.98;95672.41;5010306;28;20053;-71
2022/07/31 08:30:37;;;;;;;1999.90;999.90;;;;;;;22.97;51.09;95670.88;5025375;28;20077;-71
2022/07/31 08:33:02;;;;;;;1999.90;999.90;;;;;;;23.23;52.68;95670.00;5012093;28;20533;-72
2022/07/31 08:35:27;;;;;;;1999.90;999.90;;;;;;;23.70;49.77;95666.59;5010604;28;20037;-71
2022/07/31 08:37:53;;;;;;;1999.90;999.90;;;;;;;23.43;49.65;95674.06;5029855;28;20021;-71
2022/07/31 08:40:18;;;;;;;1999.90;999.90;;;;;;;22.87;50.07;95682.34;5025334;28;20079;-71
2022/07/31 08:42:45;;;;;;;1999.90;999.90;;;;;;;23.51;53.11;95670.28;5029292;28;20037;-71
2022/07/31 08:45:11;;;;;;;1999.90;999.90;;;;;;;23.45;49.97;95668.28;5025819;28;20034;-71
2022/07/31 08:47:37;;;;;;;1999.90;999.90;;;;;;;23.70;50.14;95668.50;5029042;28;20029;-71
2022/07/31 08:50:04;;;;;;;1999.90;999.90;;;;;;;23.50;50.39;95666.00;5027941;28;20034;-71
2022/07/31 08:52:31;;;;;;;1999.90;999.90;;;;;;;23.61;50.02;95663.38;5029237;28;20082;-70
2022/07/31 08:54:58;;;;;;;1999.90;999.90;;;;;;;23.87;48.19;95665.19;5004151;28;20483;-70
2022/07/31 08:57:25;;;;;;;1999.90;999.90;;;;;;;24.18;55.31;95666.56;4992284;28;20022;-70
2022/07/31 08:59:52;;;;;;;1999.90;999.90;;;;;;;24.20;48.59;95666.94;4992293;28;20030;-71
2022/07/31 09:02:17;;;;;;;1999.90;999.90;;;;;;;24.55;57.94;95666.41;5007787;28;20044;-70
2022/07/31 09:04:43;;;;;;;1999.90;999.90;;;;;;;24.41;48.13;95658.16;5029629;28;20386;-70
2022/07/31 09:07:13;;;;;;;1999.90;999.90;;;;;;;24.62;54.38;95663.72;5007635;28;20114;-71
2022/07/31 09:09:41;;;;;;;1999.90;999.90;;;;;;;25.05;54.85;95660.38;5027408;28;20037;-71
2022/07/31 09:12:07;;;;;;;1999.90;999.90;;;;;;;25.21;56.80;95662.78;5010175;28;20021;-70
2022/07/31 09:14:33;;;;;;;1999.90;999.90;;;;;;;25.34;53.05;95653.88;5026720;22;20045;-65
2022/07/31 09:17:00;;;;;;;1999.90;999.90;;;;;;;25.38;49.55;95651.13;5014483;28;20029;-64
2022/07/31 09:19:40;;;;;;;1999.90;999.90;;;;;;;24.73;42.51;95652.13;5028951;28;20029;-64
2022/07/31 09:22:06;;;;;;;1999.90;999.90;;;;;;;24.76;45.45;95648.63;5028300;28;20112;-63
2022/07/31 09:24:33;;;;;;;1999.90;999.90;;;;;;;25.18;45.47;95653.44;5011783;28;20574;-64
2022/07/31 09:27:07;;;;;;;1999.90;999.90;;;;;;;25.05;44.89;95642.09;5028076;28;20029;-64
2022/07/31 09:29:37;;;;;;;1999.90;999.90;;;;;;;24.98;41.86;95631.22;5032985;28;20021;-65
2022/07/31 09:32:07;;;;;;;1999.90;999.90;;;;;;;25.39;50.51;95645.31;5017646;28;20497;-64
2022/07/31 09:34:33;;;;;;;1999.90;999.90;;;;;;;25.76;54.54;95636.03;5012685;28;20033;-66
2022/07/31 09:37:07;;;;;;;1999.90;999.90;;;;;;;25.09;39.73;95634.00;5030584;28;20033;-64
2022/07/31 09:39:32;;;;;;;1999.90;999.90;;;;;;;24.97;40.81;95642.47;5029942;28;20029;-64
2022/07/31 09:41:58;;;;;;;1999.90;999.90;;;;;;;24.96;38.54;95635.47;5032621;28;20032;-65
2022/07/31 09:44:23;;;;;;;1999.90;999.90;;;;;;;24.89;39.05;95634.28;5031578;28;20028;-64
2022/07/31 09:46:49;;;;;;;1999.90;999.90;;;;;;;25.21;36.69;95643.72;5030071;28;20061;-64
2022/07/31 09:49:14;;;;;;;1999.90;999.90;;;;;;;24.92;34.18;95635.44;5030690;28;20026;-65
2022/07/31 09:51:44;;;;;;;1999.90;999.90;;;;;;;25.60;40.30;95643.78;5011294;28;20163;-64
2022/07/31 09:54:21;;;;;;;1999.90;999.90;;;;;;;25.93;45.25;95627.06;5012009;28;20474;-64
2022/07/31 09:56:48;;;;;;;1999.90;999.90;;;;;;;25.80;40.77;95631.34;5014263;28;20372;-64
2022/07/31 09:59:14;;;;;;;1999.90;999.90;;;;;;;25.08;36.02;95619.59;5020964;28;20036;-64
2022/07/31 10:01:40;;;;;;;1999.90;999.90;;;;;;;25.11;36.07;95628.94;5018767;28;20034;-65
2022/07/31 10:04:05;;;;;;;1999.90;999.90;;;;;;;25.16;36.34;95625.81;5018313;28;20099;-65
2022/07/31 10:06:33;;;;;;;1999.90;999.90;;;;;;;25.37;37.61;95630.53;5030176;28;20061;-64
2022/07/31 10:09:00;;;;;;;1999.90;999.90;;;;;;;25.96;38.88;95625.50;5027251;28;20037;-65
2022/07/31 10:11:28;;;;;;;1999.90;999.90;;;;;;;26.18;38.44;95628.97;5027477;28;20029;-65
2022/07/31 10:13:59;;;;;;;1999.90;999.90;;;;;;;26.00;36.02;95618.09;5032185;28;20485;-64
2022/07/31 10:16:26;;;;;;;1999.90;999.90;;;;;;;25.42;35.99;95630.91;5033095;28;20037;-64
2022/07/31 10:18:57;;;;;;;1999.90;999.90;;;;;;;25.49;38.73;95615.75;5024223;28;20022;-64
2022/07/31 10:21:32;;;;;;;1999.90;999.90;;;;;;;25.68;34.90;95624.31;5029309;28;20366;-63
2022/07/31 10:23:59;;;;;;;1999.90;999.90;;;;;;;25.34;35.65;95625.88;5022511;28;20100;-63
2022/07/31 10:26:25;;;;;;;1999.90;999.90;;;;;;;25.82;35.56;95628.25;5030793;28;20018;-64
2022/07/31 10:28:51;;;;;;;1999.90;999.90;;;;;;;26.17;40.08;95628.19;5024146;28;20027;-63
2022/07/31 10:31:17;;;;;;;1999.90;999.90;;;;;;;26.04;35.64;95612.63;5030250;28;20029;-64
2022/07/31 10:33:43;;;;;;;1999.90;999.90;;;;;;;26.11;35.11;95615.34;5045749;28;20036;-64
2022/07/31 10:36:12;;;;;;;1999.90;999.90;;;;;;;26.73;35.42;95609.34;5020657;28;20034;-64
2022/07/31 10:38:55;;;;;;;1999.90;999.90;;;;;;;26.28;36.11;95616.47;5022393;28;20030;-63
2022/07/31 10:41:33;;;;;;;1999.90;999.90;;;;;;;26.19;34.99;95603.25;5025691;28;20490;-65
2022/07/31 10:44:02;;;;;;;1999.90;999.90;;;;;;;26.52;35.98;95614.88;5030370;28;20454;-65
2022/07/31 10:46:32;;;;;;;1999.90;999.90;;;;;;;25.99;35.95;95607.56;5029183;28;20044;-65
2022/07/31 10:48:58;;;;;;;1999.90;999.90;;;;;;;25.97;34.41;95556.19;5035081;28;20033;-65
2022/07/31 10:51:25;;;;;;;1999.90;999.90;;;;;;;26.94;36.57;95603.75;5030408;28;20022;-65
2022/07/31 10:54:01;;;;;;;1999.90;999.90;;;;;;;26.51;33.52;95611.34;5020597;28;20500;-64